Upstream stations:
Downstream station:
SHEF ID: WRWO2 Deep Fork at Warwick, OK
STATION TYPE:
Regulating: Stage = 19.00, Flow = 7406
STAGE RIV-FLOW BAT-LOAD
ft cfs volt
Ccp-Rev Ccp-Rev Ccp-Rev
(US/Central)
09/22 00:00 4.57 51 13.07
09/22 01:00 4.57 51 13.00
09/22 02:00 4.57 51 13.00
09/22 03:00 4.57 51 13.00
09/22 04:00 4.63 59 12.95
09/22 05:00 4.57 51 12.95
09/22 06:00 4.56 49 12.89
09/22 07:00 4.57 51 12.89
09/22 08:00 4.56 49 12.89
09/22 09:00 4.55 48 13.00
09/22 10:00 4.55 48 13.07
09/22 11:00 4.55 48 13.12
09/22 12:00 4.54 47 13.24
09/22 13:00 4.53 46 13.24
09/22 14:00 4.53 46 13.36
09/22 15:00 4.54 47 13.59
09/22 16:00 4.53 46 13.77
09/22 17:00 4.53 46 13.71
09/22 18:00 4.53 46 13.65
09/22 19:00 4.54 47 13.48
09/22 20:00 4.54 47 13.18
09/22 21:00 4.54 47 13.12
09/22 22:00 4.54 47 13.07
09/22 23:00 4.54 47 13.07